sensor_id;sensor_type;location;lat;lon;timestamp;pressure;altitude;pressure_sealevel;temperature;humidity
64064;BME280;50314;50.618;10.642;2023-03-01T00:01:05;97702.91;;;14.70;21.63
64064;BME280;50314;50.618;10.642;2023-03-01T00:03:32;97704.72;;;14.69;21.43
64064;BME280;50314;50.618;10.642;2023-03-01T00:05:57;97696.19;;;14.64;21.54
64064;BME280;50314;50.618;10.642;2023-03-01T00:08:23;97705.22;;;14.62;21.57
64064;BME280;50314;50.618;10.642;2023-03-01T00:10:49;97701.84;;;14.60;21.34
64064;BME280;50314;50.618;10.642;2023-03-01T00:13:14;97693.78;;;14.61;21.34
64064;BME280;50314;50.618;10.642;2023-03-01T00:15:40;97699.91;;;14.62;21.75
64064;BME280;50314;50.618;10.642;2023-03-01T00:18:09;97699.06;;;14.61;21.46
64064;BME280;50314;50.618;10.642;2023-03-01T00:20:35;97692.09;;;14.60;21.72
64064;BME280;50314;50.618;10.642;2023-03-01T00:23:00;97694.84;;;14.58;21.80
64064;BME280;50314;50.618;10.642;2023-03-01T00:25:26;97699.31;;;14.58;21.48
64064;BME280;50314;50.618;10.642;2023-03-01T00:27:51;97694.22;;;14.55;21.58
64064;BME280;50314;50.618;10.642;2023-03-01T00:30:16;97693.63;;;14.51;21.73
64064;BME280;50314;50.618;10.642;2023-03-01T00:32:42;97688.31;;;14.51;21.59
64064;BME280;50314;50.618;10.642;2023-03-01T00:35:07;97685.66;;;14.51;21.80
64064;BME280;50314;50.618;10.642;2023-03-01T00:37:33;97674.13;;;14.52;21.53
64064;BME280;50314;50.618;10.642;2023-03-01T00:39:58;97688.31;;;14.51;21.39
64064;BME280;50314;50.618;10.642;2023-03-01T00:42:24;97682.16;;;14.51;21.70
64064;BME280;50314;50.618;10.642;2023-03-01T00:44:49;97677.72;;;14.51;21.48
64064;BME280;50314;50.618;10.642;2023-03-01T00:47:15;97676.03;;;14.50;21.67
64064;BME280;50314;50.618;10.642;2023-03-01T00:49:40;97690.25;;;14.49;21.59
64064;BME280;50314;50.618;10.642;2023-03-01T00:52:06;97685.16;;;14.46;21.82
64064;BME280;50314;50.618;10.642;2023-03-01T00:54:31;97684.44;;;14.44;21.68
64064;BME280;50314;50.618;10.642;2023-03-01T00:56:56;97682.00;;;14.41;21.49
64064;BME280;50314;50.618;10.642;2023-03-01T00:59:22;97682.22;;;14.38;21.60
64064;BME280;50314;50.618;10.642;2023-03-01T01:01:47;97679.47;;;14.40;21.68
64064;BME280;50314;50.618;10.642;2023-03-01T01:04:13;97677.75;;;14.39;21.55
64064;BME280;50314;50.618;10.642;2023-03-01T01:06:42;97671.63;;;14.38;21.51
64064;BME280;50314;50.618;10.642;2023-03-01T01:09:09;97665.63;;;14.36;21.84
64064;BME280;50314;50.618;10.642;2023-03-01T01:11:43;97663.91;;;14.35;21.60
64064;BME280;50314;50.618;10.642;2023-03-01T01:14:09;97665.72;;;14.34;21.77
64064;BME280;50314;50.618;10.642;2023-03-01T01:16:34;97661.38;;;14.33;21.85
64064;BME280;50314;50.618;10.642;2023-03-01T01:19:00;97661.47;;;14.32;21.94
64064;BME280;50314;50.618;10.642;2023-03-01T01:21:26;97658.81;;;14.32;21.72
64064;BME280;50314;50.618;10.642;2023-03-01T01:23:52;97660.63;;;14.31;21.60
64064;BME280;50314;50.618;10.642;2023-03-01T01:26:24;97648.56;;;14.27;21.76
64064;BME280;50314;50.618;10.642;2023-03-01T01:28:50;97656.44;;;14.29;21.61
64064;BME280;50314;50.618;10.642;2023-03-01T01:31:16;97649.31;;;14.29;21.75
64064;BME280;50314;50.618;10.642;2023-03-01T01:33:42;97642.31;;;14.28;21.65
64064;BME280;50314;50.618;10.642;2023-03-01T01:36:08;97634.34;;;14.28;21.89
64064;BME280;50314;50.618;10.642;2023-03-01T01:38:34;97635.31;;;14.27;21.89
64064;BME280;50314;50.618;10.642;2023-03-01T01:41:00;97628.22;;;14.28;21.74
64064;BME280;50314;50.618;10.642;2023-03-01T01:43:33;97632.06;;;14.24;21.66
64064;BME280;50314;50.618;10.642;2023-03-01T01:46:12;97632.19;;;14.22;21.89
64064;BME280;50314;50.618;10.642;2023-03-01T01:48:47;97634.94;;;14.21;21.82
64064;BME280;50314;50.618;10.642;2023-03-01T01:51:18;97621.47;;;14.24;21.55
64064;BME280;50314;50.618;10.642;2023-03-01T01:53:47;97629.41;;;14.24;21.85
64064;BME280;50314;50.618;10.642;2023-03-01T01:56:17;97628.66;;;14.22;21.74
64064;BME280;50314;50.618;10.642;2023-03-01T01:58:44;97627.00;;;14.21;21.90
64064;BME280;50314;50.618;10.642;2023-03-01T02:01:10;97621.69;;;14.21;22.02
64064;BME280;50314;50.618;10.642;2023-03-01T02:03:38;97620.00;;;14.20;21.82
64064;BME280;50314;50.618;10.642;2023-03-01T02:08:36;97613.97;;;14.18;21.90
64064;BME280;50314;50.618;10.642;2023-03-01T02:11:03;97605.19;;;14.17;21.87
64064;BME280;50314;50.618;10.642;2023-03-01T02:13:31;97606.84;;;14.18;21.71
64064;BME280;50314;50.618;10.642;2023-03-01T02:15:56;97588.28;;;14.07;21.86
64064;BME280;50314;50.618;10.642;2023-03-01T02:18:23;97587.09;;;14.11;21.73
64064;BME280;50314;50.618;10.642;2023-03-01T02:23:30;97579.97;;;14.12;21.92
64064;BME280;50314;50.618;10.642;2023-03-01T02:26:20;97575.16;;;14.05;22.07
64064;BME280;50314;50.618;10.642;2023-03-01T02:28:46;97569.38;;;14.12;21.93
64064;BME280;50314;50.618;10.642;2023-03-01T02:31:18;97566.13;;;14.08;21.96
64064;BME280;50314;50.618;10.642;2023-03-01T02:34:03;97574.81;;;14.10;21.86
64064;BME280;50314;50.618;10.642;2023-03-01T02:36:52;97569.00;;;14.05;21.83
64064;BME280;50314;50.618;10.642;2023-03-01T02:39:23;97573.22;;;14.07;22.02
64064;BME280;50314;50.618;10.642;2023-03-01T02:41:52;97570.47;;;14.09;21.85
64064;BME280;50314;50.618;10.642;2023-03-01T02:44:19;97570.47;;;14.09;22.01
64064;BME280;50314;50.618;10.642;2023-03-01T02:46:50;97573.22;;;14.07;21.75
64064;BME280;50314;50.618;10.642;2023-03-01T02:49:23;97572.50;;;14.05;21.71
64064;BME280;50314;50.618;10.642;2023-03-01T02:54:46;97577.50;;;13.97;22.16
64064;BME280;50314;50.618;10.642;2023-03-01T02:57:13;97575.69;;;13.98;22.06
64064;BME280;50314;50.618;10.642;2023-03-01T02:59:40;97577.41;;;13.99;22.15
64064;BME280;50314;50.618;10.642;2023-03-01T03:02:28;97574.25;;;13.94;22.23
64064;BME280;50314;50.618;10.642;2023-03-01T03:05:05;97574.88;;;13.97;22.03
64064;BME280;50314;50.618;10.642;2023-03-01T03:07:33;97573.94;;;13.98;21.97
64064;BME280;50314;50.618;10.642;2023-03-01T03:10:00;97576.56;;;13.98;22.15
64064;BME280;50314;50.618;10.642;2023-03-01T03:12:25;97572.13;;;13.99;21.82
64064;BME280;50314;50.618;10.642;2023-03-01T03:14:51;97574.88;;;13.97;21.79
64064;BME280;50314;50.618;10.642;2023-03-01T03:17:16;97576.66;;;13.97;22.04
64064;BME280;50314;50.618;10.642;2023-03-01T03:19:42;97576.91;;;13.94;21.94
64064;BME280;50314;50.618;10.642;2023-03-01T03:22:13;97569.91;;;13.93;21.95
64064;BME280;50314;50.618;10.642;2023-03-01T03:24:38;97569.28;;;13.89;21.84
64064;BME280;50314;50.618;10.642;2023-03-01T03:27:05;97565.88;;;13.87;22.00
64064;BME280;50314;50.618;10.642;2023-03-01T03:29:30;97570.19;;;13.88;22.09
64064;BME280;50314;50.618;10.642;2023-03-01T03:31:56;97557.94;;;13.87;22.14
64064;BME280;50314;50.618;10.642;2023-03-01T03:34:21;97559.88;;;13.85;21.99
64064;BME280;50314;50.618;10.642;2023-03-01T03:36:47;97557.31;;;13.83;21.86
64064;BME280;50314;50.618;10.642;2023-03-01T03:39:12;97556.59;;;13.81;22.11
64064;BME280;50314;50.618;10.642;2023-03-01T03:41:38;97555.94;;;13.78;21.93
64064;BME280;50314;50.618;10.642;2023-03-01T03:44:03;97548.97;;;13.77;21.97
64064;BME280;50314;50.618;10.642;2023-03-01T03:46:29;97548.97;;;13.77;22.15
64064;BME280;50314;50.618;10.642;2023-03-01T03:48:55;97547.28;;;13.76;21.91
64064;BME280;50314;50.618;10.642;2023-03-01T03:51:20;97551.75;;;13.75;22.15
64064;BME280;50314;50.618;10.642;2023-03-01T03:53:47;97542.22;;;13.73;22.19
64064;BME280;50314;50.618;10.642;2023-03-01T03:56:13;97538.75;;;13.72;22.08
64064;BME280;50314;50.618;10.642;2023-03-01T03:58:39;97539.44;;;13.74;22.01
64064;BME280;50314;50.618;10.642;2023-03-01T04:01:06;97531.63;;;13.73;22.12
64064;BME280;50314;50.618;10.642;2023-03-01T04:03:32;97534.50;;;13.70;21.99
64064;BME280;50314;50.618;10.642;2023-03-01T04:05:59;97537.16;;;13.70;21.84
64064;BME280;50314;50.618;10.642;2023-03-01T04:08:25;97547.97;;;13.67;22.13
64064;BME280;50314;50.618;10.642;2023-03-01T04:10:52;97538.34;;;13.66;22.15
64064;BME280;50314;50.618;10.642;2023-03-01T04:13:22;97540.97;;;13.66;22.19
64064;BME280;50314;50.618;10.642;2023-03-01T04:15:49;97528.72;;;13.65;21.98
64064;BME280;50314;50.618;10.642;2023-03-01T04:18:16;97534.09;;;13.63;21.95
64064;BME280;50314;50.618;10.642;2023-03-01T04:20:42;97528.94;;;13.61;22.03
64064;BME280;50314;50.618;10.642;2023-03-01T04:23:19;97531.81;;;13.58;22.33
64064;BME280;50314;50.618;10.642;2023-03-01T04:25:54;97533.38;;;13.61;22.35
64064;BME280;50314;50.618;10.642;2023-03-01T04:28:34;97522.91;;;13.59;22.22
64064;BME280;50314;50.618;10.642;2023-03-01T04:31:12;97524.81;;;13.57;22.17
64064;BME280;50314;50.618;10.642;2023-03-01T04:33:47;97519.50;;;13.57;22.07
64064;BME280;50314;50.618;10.642;2023-03-01T04:36:15;97512.53;;;13.56;22.21
64064;BME280;50314;50.618;10.642;2023-03-01T04:38:41;97508.00;;;13.58;21.91
64064;BME280;50314;50.618;10.642;2023-03-01T04:41:09;97515.19;;;13.56;21.98
64064;BME280;50314;50.618;10.642;2023-03-01T04:43:35;97505.56;;;13.55;22.08
64064;BME280;50314;50.618;10.642;2023-03-01T04:46:02;97509.88;;;13.56;22.10
64064;BME280;50314;50.618;10.642;2023-03-01T04:48:29;97514.44;;;13.54;21.98
64064;BME280;50314;50.618;10.642;2023-03-01T04:50:55;97517.09;;;13.54;22.08
64064;BME280;50314;50.618;10.642;2023-03-01T04:53:20;97513.59;;;13.54;22.35
64064;BME280;50314;50.618;10.642;2023-03-01T04:55:46;97515.41;;;13.53;22.10
64064;BME280;50314;50.618;10.642;2023-03-01T04:58:11;97519.03;;;13.52;22.14
64064;BME280;50314;50.618;10.642;2023-03-01T05:00:36;97513.72;;;13.52;22.21
64064;BME280;50314;50.618;10.642;2023-03-01T05:03:02;97509.41;;;13.51;22.15
64064;BME280;50314;50.618;10.642;2023-03-01T05:05:36;97515.97;;;13.46;22.10
64064;BME280;50314;50.618;10.642;2023-03-01T05:08:05;97506.97;;;13.48;22.09
64064;BME280;50314;50.618;10.642;2023-03-01T05:10:32;97512.25;;;13.48;22.08
64064;BME280;50314;50.618;10.642;2023-03-01T05:13:00;97505.25;;;13.47;22.03
64064;BME280;50314;50.618;10.642;2023-03-01T05:15:26;97511.53;;;13.46;22.08
64064;BME280;50314;50.618;10.642;2023-03-01T05:17:54;97501.06;;;13.45;22.26
64064;BME280;50314;50.618;10.642;2023-03-01T05:20:20;97500.19;;;13.44;22.16
64064;BME280;50314;50.618;10.642;2023-03-01T05:22:48;97494.06;;;13.44;22.18
64064;BME280;50314;50.618;10.642;2023-03-01T05:25:14;97489.50;;;13.46;22.12
64064;BME280;50314;50.618;10.642;2023-03-01T05:27:40;97481.56;;;13.46;22.24
64064;BME280;50314;50.618;10.642;2023-03-01T05:30:06;97488.53;;;13.47;22.02
64064;BME280;50314;50.618;10.642;2023-03-01T05:32:43;97485.06;;;13.46;22.22
64064;BME280;50314;50.618;10.642;2023-03-01T05:35:10;97481.56;;;13.46;22.22
64064;BME280;50314;50.618;10.642;2023-03-01T05:37:42;97479.03;;;13.44;22.16
64064;BME280;50314;50.618;10.642;2023-03-01T05:40:10;97480.94;;;13.42;22.26
64064;BME280;50314;50.618;10.642;2023-03-01T05:42:45;97484.56;;;13.41;22.30
64064;BME280;50314;50.618;10.642;2023-03-01T05:45:12;97476.63;;;13.41;22.17
64064;BME280;50314;50.618;10.642;2023-03-01T05:47:39;97475.75;;;13.40;22.27
64064;BME280;50314;50.618;10.642;2023-03-01T05:50:28;97481.03;;;13.40;22.35
64064;BME280;50314;50.618;10.642;2023-03-01T05:52:59;97480.44;;;13.37;22.36
64064;BME280;50314;50.618;10.642;2023-03-01T05:55:26;97486.47;;;13.39;22.46
64064;BME280;50314;50.618;10.642;2023-03-01T05:57:51;97486.69;;;13.36;22.40
64064;BME280;50314;50.618;10.642;2023-03-01T06:00:19;97482.22;;;13.36;22.47
64064;BME280;50314;50.618;10.642;2023-03-01T06:02:45;97478.75;;;13.36;22.22
64064;BME280;50314;50.618;10.642;2023-03-01T06:05:12;97489.19;;;13.37;22.52
64064;BME280;50314;50.618;10.642;2023-03-01T06:07:38;97484.03;;;13.36;22.17
64064;BME280;50314;50.618;10.642;2023-03-01T06:10:06;97483.06;;;13.37;22.20
64064;BME280;50314;50.618;10.642;2023-03-01T06:12:33;97486.69;;;13.36;22.53
64064;BME280;50314;50.618;10.642;2023-03-01T06:15:00;97486.69;;;13.36;22.42
64064;BME280;50314;50.618;10.642;2023-03-01T06:17:26;97478.88;;;13.34;22.43
64064;BME280;50314;50.618;10.642;2023-03-01T06:19:54;97482.34;;;13.35;22.43
64064;BME280;50314;50.618;10.642;2023-03-01T06:22:19;97482.44;;;13.33;22.34
64064;BME280;50314;50.618;10.642;2023-03-01T06:24:44;97485.94;;;13.34;22.28
64064;BME280;50314;50.618;10.642;2023-03-01T06:27:10;97486.06;;;13.32;22.49
64064;BME280;50314;50.618;10.642;2023-03-01T06:29:35;97480.78;;;13.32;22.24
64064;BME280;50314;50.618;10.642;2023-03-01T06:32:02;97477.28;;;13.32;22.31
64064;BME280;50314;50.618;10.642;2023-03-01T06:34:28;97487.88;;;13.32;22.43
64064;BME280;50314;50.618;10.642;2023-03-01T06:36:53;97490.38;;;13.33;22.40
64064;BME280;50314;50.618;10.642;2023-03-01T06:39:19;97486.91;;;13.33;22.23
64064;BME280;50314;50.618;10.642;2023-03-01T06:41:44;97479.72;;;13.35;22.51
64064;BME280;50314;50.618;10.642;2023-03-01T06:44:10;97478.00;;;13.34;22.45
64064;BME280;50314;50.618;10.642;2023-03-01T06:46:35;97476.31;;;13.33;22.43
64064;BME280;50314;50.618;10.642;2023-03-01T06:49:01;97478.13;;;13.32;22.51
64064;BME280;50314;50.618;10.642;2023-03-01T06:51:30;97474.63;;;13.32;22.41
64064;BME280;50314;50.618;10.642;2023-03-01T06:53:55;97472.97;;;13.31;22.49
64064;BME280;50314;50.618;10.642;2023-03-01T06:56:20;97481.00;;;13.29;22.61
64064;BME280;50314;50.618;10.642;2023-03-01T06:58:46;97478.25;;;13.31;22.07
64064;BME280;50314;50.618;10.642;2023-03-01T07:01:11;97472.09;;;13.30;22.31
64064;BME280;50314;50.618;10.642;2023-03-01T07:03:37;97476.31;;;13.33;22.64
64064;BME280;50314;50.618;10.642;2023-03-01T07:06:02;97472.72;;;13.34;22.39
64064;BME280;50314;50.618;10.642;2023-03-01T07:08:28;97479.72;;;13.35;22.56
64064;BME280;50314;50.618;10.642;2023-03-01T07:10:57;97483.19;;;13.35;22.67
64064;BME280;50314;50.618;10.642;2023-03-01T07:13:23;97478.41;;;13.40;22.77
64064;BME280;50314;50.618;10.642;2023-03-01T07:15:48;97484.56;;;13.41;22.58
64064;BME280;50314;50.618;10.642;2023-03-01T07:18:14;97473.84;;;13.43;22.86
64064;BME280;50314;50.618;10.642;2023-03-01T07:20:39;97467.50;;;13.45;22.78
64064;BME280;50314;50.618;10.642;2023-03-01T07:23:05;97464.63;;;13.48;22.67
64064;BME280;50314;50.618;10.642;2023-03-01T07:25:31;97473.06;;;13.53;22.77
64064;BME280;50314;50.618;10.642;2023-03-01T07:27:57;97463.22;;;13.55;22.83
64064;BME280;50314;50.618;10.642;2023-03-01T07:30:23;97463.00;;;13.58;22.87
64064;BME280;50314;50.618;10.642;2023-03-01T07:32:51;97469.84;;;13.61;22.75
64064;BME280;50314;50.618;10.642;2023-03-01T07:35:17;97448.34;;;13.66;22.64
64064;BME280;50314;50.618;10.642;2023-03-01T07:37:43;97453.28;;;13.70;22.59
64064;BME280;50314;50.618;10.642;2023-03-01T07:40:09;97448.72;;;13.72;22.52
64064;BME280;50314;50.618;10.642;2023-03-01T07:42:35;97447.66;;;13.75;22.78
64064;BME280;50314;50.618;10.642;2023-03-01T07:45:00;97447.53;;;13.76;22.43
64064;BME280;50314;50.618;10.642;2023-03-01T07:47:26;97445.50;;;13.80;22.76
64064;BME280;50314;50.618;10.642;2023-03-01T07:49:51;97446.22;;;13.82;22.51
64064;BME280;50314;50.618;10.642;2023-03-01T07:52:17;97442.63;;;13.83;22.67
64064;BME280;50314;50.618;10.642;2023-03-01T07:54:43;97443.34;;;13.85;22.52
64064;BME280;50314;50.618;10.642;2023-03-01T07:57:09;97444.06;;;13.87;22.56
64064;BME280;50314;50.618;10.642;2023-03-01T07:59:35;97448.41;;;13.88;22.48
64064;BME280;50314;50.618;10.642;2023-03-01T08:02:00;97454.44;;;13.90;22.67
64064;BME280;50314;50.618;10.642;2023-03-01T08:04:26;97452.63;;;13.91;22.39
64064;BME280;50314;50.618;10.642;2023-03-01T08:06:52;97459.53;;;13.93;22.35
64064;BME280;50314;50.618;10.642;2023-03-01T08:09:18;97462.19;;;13.93;22.46
64064;BME280;50314;50.618;10.642;2023-03-01T08:11:43;97454.25;;;13.93;22.52
64064;BME280;50314;50.618;10.642;2023-03-01T08:14:08;97457.72;;;13.94;22.49
64064;BME280;50314;50.618;10.642;2023-03-01T08:16:35;97458.47;;;13.96;22.43
64064;BME280;50314;50.618;10.642;2023-03-01T08:19:09;97452.31;;;13.95;22.83
64064;BME280;50314;50.618;10.642;2023-03-01T08:21:35;97470.50;;;14.00;22.81
64064;BME280;50314;50.618;10.642;2023-03-01T08:24:04;97453.53;;;14.02;22.51
64064;BME280;50314;50.618;10.642;2023-03-01T08:26:31;97459.56;;;14.04;22.82
64064;BME280;50314;50.618;10.642;2023-03-01T08:28:56;97461.13;;;14.07;22.83
64064;BME280;50314;50.618;10.642;2023-03-01T08:31:30;97461.03;;;14.08;22.73
64064;BME280;50314;50.618;10.642;2023-03-01T08:33:58;97456.44;;;14.10;22.88
64064;BME280;50314;50.618;10.642;2023-03-01T08:36:30;97464.28;;;14.12;22.85
64064;BME280;50314;50.618;10.642;2023-03-01T08:38:57;97453.56;;;14.14;22.89
64064;BME280;50314;50.618;10.642;2023-03-01T08:41:23;97455.97;;;14.17;22.83
64064;BME280;50314;50.618;10.642;2023-03-01T08:43:49;97455.75;;;14.20;22.60
64064;BME280;50314;50.618;10.642;2023-03-01T08:46:14;97443.22;;;14.22;21.85
64064;BME280;50314;50.618;10.642;2023-03-01T08:48:40;97438.78;;;14.22;21.36
64064;BME280;50314;50.618;10.642;2023-03-01T08:51:14;97433.59;;;14.21;21.08
64064;BME280;50314;50.618;10.642;2023-03-01T08:53:40;97437.06;;;14.21;20.76
64064;BME280;50314;50.618;10.642;2023-03-01T08:56:07;97437.19;;;14.20;20.51
64064;BME280;50314;50.618;10.642;2023-03-01T08:58:33;97432.75;;;14.20;20.16
64064;BME280;50314;50.618;10.642;2023-03-01T09:00:58;97423.97;;;14.20;20.48
64064;BME280;50314;50.618;10.642;2023-03-01T09:03:25;97423.81;;;14.21;20.59
64064;BME280;50314;50.618;10.642;2023-03-01T09:05:51;97417.59;;;14.22;20.74
64064;BME280;50314;50.618;10.642;2023-03-01T09:08:17;97410.34;;;14.24;20.66
64064;BME280;50314;50.618;10.642;2023-03-01T09:10:43;97398.66;;;14.27;20.89
64064;BME280;50314;50.618;10.642;2023-03-01T09:13:09;97405.66;;;14.28;20.54
64064;BME280;50314;50.618;10.642;2023-03-01T09:15:37;97400.94;;;14.31;20.79
64064;BME280;50314;50.618;10.642;2023-03-01T09:18:02;97399.78;;;14.36;20.62
64064;BME280;50314;50.618;10.642;2023-03-01T09:20:28;97401.22;;;14.40;20.89
64064;BME280;50314;50.618;10.642;2023-03-01T09:22:53;97396.38;;;14.45;20.99
64064;BME280;50314;50.618;10.642;2023-03-01T09:25:19;97403.97;;;14.49;20.92
64064;BME280;50314;50.618;10.642;2023-03-01T09:27:44;97398.16;;;14.55;20.94
64064;BME280;50314;50.618;10.642;2023-03-01T09:30:10;97394.19;;;14.61;21.04
64064;BME280;50314;50.618;10.642;2023-03-01T09:32:36;97395.53;;;14.67;20.99
64064;BME280;50314;50.618;10.642;2023-03-01T09:35:02;97397.72;;;14.73;21.05
64064;BME280;50314;50.618;10.642;2023-03-01T09:37:32;97395.31;;;14.81;21.11
64064;BME280;50314;50.618;10.642;2023-03-01T09:39:58;97390.34;;;14.88;21.45
64064;BME280;50314;50.618;10.642;2023-03-01T09:42:24;97393.22;;;14.96;21.27
64064;BME280;50314;50.618;10.642;2023-03-01T09:45:15;97386.81;;;14.98;21.15
64064;BME280;50314;50.618;10.642;2023-03-01T09:47:45;97389.31;;;15.11;21.27
64064;BME280;50314;50.618;10.642;2023-03-01T09:50:16;97384.47;;;15.16;21.64
64064;BME280;50314;50.618;10.642;2023-03-01T09:53:09;97385.69;;;15.23;21.25
64064;BME280;50314;50.618;10.642;2023-03-01T10:01:34;97387.91;;;15.50;21.56
64064;BME280;50314;50.618;10.642;2023-03-01T10:04:28;97388.81;;;15.61;21.45
64064;BME280;50314;50.618;10.642;2023-03-01T10:09:25;97375.72;;;15.90;21.32
64064;BME280;50314;50.618;10.642;2023-03-01T10:11:55;97370.47;;;16.00;21.32
64064;BME280;50314;50.618;10.642;2023-03-01T10:14:36;97374.16;;;16.08;21.28
64064;BME280;50314;50.618;10.642;2023-03-01T10:17:14;97372.28;;;16.20;21.31
64064;BME280;50314;50.618;10.642;2023-03-01T10:19:44;97369.56;;;16.31;21.24
64064;BME280;50314;50.618;10.642;2023-03-01T10:24:43;97367.94;;;16.50;21.36
64064;BME280;50314;50.618;10.642;2023-03-01T10:29:53;97365.72;;;16.64;21.24
64064;BME280;50314;50.618;10.642;2023-03-01T10:32:21;97360.19;;;16.77;21.31
64064;BME280;50314;50.618;10.642;2023-03-01T10:34:47;97369.19;;;16.86;21.26
64064;BME280;50314;50.618;10.642;2023-03-01T10:37:18;97365.84;;;16.94;21.37
64064;BME280;50314;50.618;10.642;2023-03-01T10:42:30;97361.66;;;17.10;21.49
64064;BME280;50314;50.618;10.642;2023-03-01T10:44:57;97358.03;;;17.21;21.50
64064;BME280;50314;50.618;10.642;2023-03-01T10:47:24;97351.03;;;17.30;21.24
64064;BME280;50314;50.618;10.642;2023-03-01T10:50:00;97360.00;;;17.38;21.37
64064;BME280;50314;50.618;10.642;2023-03-01T10:52:36;97358.19;;;17.49;21.17
64064;BME280;50314;50.618;10.642;2023-03-01T10:55:21;97353.03;;;17.57;21.43
64064;BME280;50314;50.618;10.642;2023-03-01T10:57:48;97351.88;;;17.69;21.31
64064;BME280;50314;50.618;10.642;2023-03-01T11:00:15;97350.19;;;17.78;21.13
64064;BME280;50314;50.618;10.642;2023-03-01T11:02:47;97350.28;;;17.86;20.96
64064;BME280;50314;50.618;10.642;2023-03-01T11:05:18;97346.94;;;17.94;21.03
64064;BME280;50314;50.618;10.642;2023-03-01T11:07:51;97344.09;;;18.05;21.19
64064;BME280;50314;50.618;10.642;2023-03-01T11:12:48;97338.44;;;18.27;20.19
64064;BME280;50314;50.618;10.642;2023-03-01T11:15:25;97324.50;;;18.34;19.53
64064;BME280;50314;50.618;10.642;2023-03-01T11:17:51;97325.28;;;18.44;18.34
64064;BME280;50314;50.618;10.642;2023-03-01T11:20:27;97321.91;;;18.51;18.23
64064;BME280;50314;50.618;10.642;2023-03-01T11:22:58;97331.13;;;18.57;17.79
64064;BME280;50314;50.618;10.642;2023-03-01T11:25:28;97335.88;;;18.63;17.11
64064;BME280;50314;50.618;10.642;2023-03-01T11:27:55;97329.94;;;18.69;16.99
64064;BME280;50314;50.618;10.642;2023-03-01T11:30:44;97320.09;;;18.70;16.38
64064;BME280;50314;50.618;10.642;2023-03-01T11:36:16;97312.38;;;18.76;16.39
64064;BME280;50314;50.618;10.642;2023-03-01T11:38:44;97306.97;;;18.86;16.56
64064;BME280;50314;50.618;10.642;2023-03-01T11:41:20;97308.50;;;18.89;16.44
64064;BME280;50314;50.618;10.642;2023-03-01T11:52:05;97288.38;;;19.12;17.33
64064;BME280;50314;50.618;10.642;2023-03-01T12:02:41;97286.47;;;19.40;17.55
64064;BME280;50314;50.618;10.642;2023-03-01T12:05:24;97276.00;;;19.47;17.30
64064;BME280;50314;50.618;10.642;2023-03-01T12:30:50;97261.97;;;19.97;18.07
64064;BME280;50314;50.618;10.642;2023-03-01T12:33:18;97260.03;;;20.07;18.13
64064;BME280;50314;50.618;10.642;2023-03-01T12:47:14;97247.91;;;20.29;18.24
64064;BME280;50314;50.618;10.642;2023-03-01T12:50:05;97251.09;;;20.33;18.14
64064;BME280;50314;50.618;10.642;2023-03-01T12:52:44;97245.94;;;20.39;18.10
64064;BME280;50314;50.618;10.642;2023-03-01T12:55:35;97240.13;;;20.44;17.07
64064;BME280;50314;50.618;10.642;2023-03-01T13:01:09;97232.44;;;20.49;16.52
64064;BME280;50314;50.618;10.642;2023-03-01T13:11:48;97223.25;;;20.52;16.85
64064;BME280;50314;50.618;10.642;2023-03-01T13:16:45;97225.59;;;20.55;17.06
64064;BME280;50314;50.618;10.642;2023-03-01T13:19:20;97227.44;;;20.54;17.10
64064;BME280;50314;50.618;10.642;2023-03-01T13:21:47;97228.78;;;20.58;17.19
64064;BME280;50314;50.618;10.642;2023-03-01T13:24:35;97237.31;;;20.54;17.30
64064;BME280;50314;50.618;10.642;2023-03-01T13:27:32;97225.78;;;20.53;17.59
64064;BME280;50314;50.618;10.642;2023-03-01T13:29:59;97219.63;;;20.61;17.30
64064;BME280;50314;50.618;10.642;2023-03-01T13:32:35;97225.13;;;20.59;17.43
64064;BME280;50314;50.618;10.642;2023-03-01T13:37:40;97220.13;;;20.64;17.53
64064;BME280;50314;50.618;10.642;2023-03-01T13:42:53;97234.00;;;20.68;15.88
64064;BME280;50314;50.618;10.642;2023-03-01T13:45:23;97224.78;;;20.62;14.62
64064;BME280;50314;50.618;10.642;2023-03-01T13:47:57;97230.09;;;20.54;14.95
64064;BME280;50314;50.618;10.642;2023-03-01T13:50:25;97215.91;;;20.54;14.98
64064;BME280;50314;50.618;10.642;2023-03-01T13:53:03;97215.06;;;20.53;15.63
64064;BME280;50314;50.618;10.642;2023-03-01T13:55:41;97210.03;;;20.50;15.77
64064;BME280;50314;50.618;10.642;2023-03-01T14:00:55;97213.03;;;20.47;16.00
64064;BME280;50314;50.618;10.642;2023-03-01T14:03:21;97225.06;;;20.43;16.32
64064;BME280;50314;50.618;10.642;2023-03-01T14:06:08;97200.00;;;20.44;16.29
64064;BME280;50314;50.618;10.642;2023-03-01T14:08:37;97204.84;;;20.49;16.75
64064;BME280;50314;50.618;10.642;2023-03-01T14:19:57;97204.84;;;20.40;17.00
64064;BME280;50314;50.618;10.642;2023-03-01T14:22:28;97204.00;;;20.40;17.11
64064;BME280;50314;50.618;10.642;2023-03-01T14:24:59;97204.84;;;20.40;17.08
64064;BME280;50314;50.618;10.642;2023-03-01T14:27:37;97197.13;;;20.37;17.04
64064;BME280;50314;50.618;10.642;2023-03-01T14:30:12;97191.59;;;20.39;17.33
64064;BME280;50314;50.618;10.642;2023-03-01T14:32:39;97189.63;;;20.41;17.43
64064;BME280;50314;50.618;10.642;2023-03-01T14:35:24;97186.56;;;20.36;17.27
64064;BME280;50314;50.618;10.642;2023-03-01T14:37:49;97180.06;;;20.38;17.21
64064;BME280;50314;50.618;10.642;2023-03-01T14:40:28;97186.91;;;20.33;17.69
64064;BME280;50314;50.618;10.642;2023-03-01T14:42:56;97188.41;;;20.35;17.45
64064;BME280;50314;50.618;10.642;2023-03-01T14:45:25;97185.09;;;20.33;17.41
64064;BME280;50314;50.618;10.642;2023-03-01T14:47:51;97177.22;;;20.32;17.42
64064;BME280;50314;50.618;10.642;2023-03-01T14:50:23;97176.88;;;20.27;17.66